Flight Track Log - Related Links

Times and Time Zones

All times are in EDT time to prevent confusion due to time zone crossing. See the FIN666 flight status page for this flight to view local times or setup timezone preferences in your user account.

Time Position Orientation Groundspeed Altitude Reporting Facility
EDT Latitude Longitude Course Direction KTS MPH feet Rate Location/Type
Tue 07:30:00 AM 55.8420 13.1192 49° Northeast  Level Estimated
Tue 07:31:00 AM 55.9164 13.2747 50° Northeast  Level Estimated
Tue 07:32:00 AM 55.9905 13.4309 50° Northeast  Level Estimated
Tue 07:33:00 AM 56.0644 13.5877 50° Northeast  Level Estimated
Tue 07:34:00 AM 56.1381 13.7451 50° Northeast  Level Estimated
Tue 07:35:00 AM 56.2116 13.9031 50° Northeast  Level Estimated
Tue 07:36:00 AM 56.2850 14.0617 50° Northeast  Level Estimated
Tue 07:37:00 AM 56.3581 14.2208 50° Northeast  Level Estimated
Tue 07:38:00 AM 56.4310 14.3807 50° Northeast  Level Estimated
Tue 07:39:00 AM 56.5037 14.5411 51° Northeast  Level Estimated
Tue 07:40:00 AM 56.5762 14.7021 51° Northeast  Level Estimated
Tue 07:41:00 AM 56.6485 14.8638 51° Northeast  Level Estimated
Tue 07:42:00 AM 56.7206 15.0261 51° Northeast  Level Estimated
Tue 07:43:00 AM 56.7924 15.1890 51° Northeast  Level Estimated
Tue 07:44:00 AM 56.8641 15.3525 51° Northeast  Level Estimated
Tue 07:45:00 AM 56.9355 15.5166 51° Northeast  Level Estimated
Tue 07:46:00 AM 57.0068 15.6814 52° Northeast  Level Estimated
Tue 07:47:00 AM 57.0778 15.8468 52° Northeast  Level Estimated
Tue 07:48:00 AM 57.1486 16.0129 52° Northeast  Level Estimated
Tue 07:49:00 AM 57.2191 16.1795 52° Northeast  Level Estimated
Tue 07:50:00 AM 57.2905 16.3493 52° Northeast  Level Estimated
Tue 07:51:00 AM 57.3616 16.5197 52° Northeast  Level Estimated
Tue 07:52:00 AM 57.4326 16.6908 52° Northeast  Level Estimated
Tue 07:53:00 AM 57.5032 16.8625 53° Northeast  Level Estimated
Tue 07:54:00 AM 57.5737 17.0349 53° Northeast  Level Estimated
Tue 07:55:00 AM 57.6439 17.2079 53° Northeast  Level Estimated
Tue 07:56:00 AM 57.7138 17.3817 53° Northeast  Level Estimated
Tue 07:57:00 AM 57.7836 17.5561 53° Northeast  Level Estimated
Tue 07:58:00 AM 57.8531 17.7311 53° Northeast  Level Estimated
Tue 07:59:00 AM 57.9223 17.9069 53° Northeast  Level Estimated
Tue 08:00:00 AM 57.9913 18.0833 54° Northeast  Level Estimated
Tue 08:01:00 AM 58.0601 18.2604 54° Northeast  Level Estimated
Tue 08:02:00 AM 58.1286 18.4382 54° Northeast  Level Estimated
Tue 08:03:00 AM 58.1968 18.6167 54° Northeast  Level Estimated
Tue 08:04:00 AM 58.2648 18.7959 54° Northeast  Level Estimated
Tue 08:05:00 AM 58.3326 18.9757 54° Northeast  Level Estimated
Tue 08:06:00 AM 58.4001 19.1563 54° Northeast  Level Estimated
Tue 08:07:00 AM 58.4674 19.3375 55° Northeast  Level Estimated
Tue 08:08:00 AM 58.5344 19.5194 55° Northeast  Level Estimated
Tue 08:09:00 AM 58.6011 19.7020 55° Northeast  Level Estimated
Tue 08:10:00 AM 58.6676 19.8853 55° Northeast  Level Estimated
Tue 08:11:00 AM 58.7338 20.0694 55° Northeast  Level Estimated
Tue 08:12:00 AM 58.7997 20.2541 55° Northeast  Level Estimated
Tue 08:13:00 AM 58.8654 20.4395 56° Northeast  Level Estimated
Tue 08:14:00 AM 58.9309 20.6256 56° Northeast  Level Estimated
Tue 08:15:00 AM 58.9960 20.8125 56° Northeast  Level Estimated
Tue 08:16:00 AM 59.0609 21.0000 56° Northeast  Level Estimated
Tue 08:17:00 AM 59.1255 21.1882 56° Northeast  Level Estimated
Tue 08:18:00 AM 59.1898 21.3772 56° Northeast  Level Estimated
Tue 08:19:00 AM 59.2539 21.5668 56° Northeast  Level Estimated
Tue 08:20:00 AM 59.3159 21.7518 57° Northeast  Level Estimated
Tue 08:21:00 AM 59.3776 21.9375 57° Northeast  Level Estimated
Tue 08:22:00 AM 59.4391 22.1239 57° Northeast  Level Estimated
Tue 08:23:00 AM 59.5003 22.3109 57° Northeast  Level Estimated
Tue 08:24:00 AM 59.5612 22.4986 57° Northeast  Level Estimated
Tue 08:25:00 AM 59.6219 22.6870 57° Northeast  Level Estimated
Tue 08:26:00 AM 59.6823 22.8761 58° Northeast  Level Estimated
Tue 08:27:00 AM 59.7424 23.0658 58° Northeast  Level Estimated
Tue 08:28:00 AM 59.8022 23.2563 58° Northeast  Level Estimated
Tue 08:29:00 AM 59.8618 23.4474 58° Northeast  Level Estimated
Tue 08:30:00 AM 59.9211 23.6392 58° Northeast  Level Estimated
Tue 08:31:00 AM 59.9801 23.8317 58° Northeast  Level Estimated
Tue 08:32:00 AM 60.0388 24.0248 59° Northeast  Level Estimated
Tue 08:33:00 AM 60.0973 24.2187 59° Northeast  Level Estimated
Tue 08:34:00 AM 60.1554 24.4132 59° Northeast  Level Estimated
Tue 08:35:00 AM 60.2133 24.6085 59° Northeast  Level Estimated
Tue 08:36:00 AM 60.2709 24.8044 59° Northeast  Level Estimated
Tue 08:37:00 AM 60.3172 24.9633 59° Northeast  Level Estimated
Tue 08:38:00 AM 60.3172 24.9633 37° Northeast  Level Estimated
Tue 08:39:00 AM 60.3172 24.9633 37° Northeast  Level Estimated
Tue 08:40:00 AM 60.3172 24.9633 37° Northeast  Level Estimated
Tue 08:41:00 AM 60.3172 24.9633 37° Northeast  Level Estimated
Tue 08:42:00 AM 60.3172 24.9633 37° Northeast  Level Estimated
Tue 08:43:00 AM 60.3172 24.9633 37° Northeast  Level Estimated
Tue 08:44:00 AM 60.3172 24.9633 37° Northeast  Level Estimated
Tue 08:45:00 AM 60.3172 24.9633 37° Northeast  Level Estimated
Tue 08:46:00 AM 60.3172 24.9633 37° Northeast  Level Estimated
Tue 08:47:00 AM 60.3172 24.9633 37° Northeast  Level Estimated

Login

Don't have an account? Register now (free) for customized features, flight alerts, and more!